sensor_id;sensor_type;location;lat;lon;timestamp;P1;durP1;ratioP1;P2;durP2;ratioP2
76546;SDS011;65390;53.014;8.886;2023-02-18T00:01:51;18.55;;;3.65;;
76546;SDS011;65390;53.014;8.886;2023-02-18T00:04:17;23.17;;;3.80;;
76546;SDS011;65390;53.014;8.886;2023-02-18T00:06:42;16.88;;;4.97;;
76546;SDS011;65390;53.014;8.886;2023-02-18T00:09:09;13.23;;;4.00;;
76546;SDS011;65390;53.014;8.886;2023-02-18T00:11:35;20.58;;;4.10;;
76546;SDS011;65390;53.014;8.886;2023-02-18T00:14:03;26.80;;;7.90;;
76546;SDS011;65390;53.014;8.886;2023-02-18T00:16:31;19.75;;;4.00;;
76546;SDS011;65390;53.014;8.886;2023-02-18T00:18:57;22.23;;;3.85;;
76546;SDS011;65390;53.014;8.886;2023-02-18T00:21:24;11.38;;;2.67;;
76546;SDS011;65390;53.014;8.886;2023-02-18T00:23:49;17.17;;;3.70;;
76546;SDS011;65390;53.014;8.886;2023-02-18T00:26:16;12.68;;;4.95;;
76546;SDS011;65390;53.014;8.886;2023-02-18T00:28:42;58.08;;;17.27;;
76546;SDS011;65390;53.014;8.886;2023-02-18T00:33:59;34.35;;;10.05;;
76546;SDS011;65390;53.014;8.886;2023-02-18T00:36:26;22.35;;;4.65;;
76546;SDS011;65390;53.014;8.886;2023-02-18T00:38:53;20.90;;;4.00;;
76546;SDS011;65390;53.014;8.886;2023-02-18T00:41:21;28.58;;;8.38;;
76546;SDS011;65390;53.014;8.886;2023-02-18T00:43:48;19.08;;;6.20;;
76546;SDS011;65390;53.014;8.886;2023-02-18T00:46:13;40.70;;;14.52;;
76546;SDS011;65390;53.014;8.886;2023-02-18T00:48:39;15.05;;;3.70;;
76546;SDS011;65390;53.014;8.886;2023-02-18T00:51:05;29.60;;;10.45;;
76546;SDS011;65390;53.014;8.886;2023-02-18T00:53:32;19.27;;;5.65;;
76546;SDS011;65390;53.014;8.886;2023-02-18T00:55:58;17.90;;;5.20;;
76546;SDS011;65390;53.014;8.886;2023-02-18T00:58:23;22.85;;;4.30;;
76546;SDS011;65390;53.014;8.886;2023-02-18T01:00:49;17.50;;;4.43;;
76546;SDS011;65390;53.014;8.886;2023-02-18T01:03:14;32.90;;;4.55;;
76546;SDS011;65390;53.014;8.886;2023-02-18T01:05:40;16.20;;;3.85;;
76546;SDS011;65390;53.014;8.886;2023-02-18T01:08:06;25.80;;;2.92;;
76546;SDS011;65390;53.014;8.886;2023-02-18T01:10:34;18.05;;;3.28;;
76546;SDS011;65390;53.014;8.886;2023-02-18T01:13:00;14.32;;;3.30;;
76546;SDS011;65390;53.014;8.886;2023-02-18T01:15:25;16.52;;;3.03;;
76546;SDS011;65390;53.014;8.886;2023-02-18T01:17:51;10.25;;;3.80;;
76546;SDS011;65390;53.014;8.886;2023-02-18T01:20:17;19.58;;;4.03;;
76546;SDS011;65390;53.014;8.886;2023-02-18T01:22:43;22.50;;;3.47;;
76546;SDS011;65390;53.014;8.886;2023-02-18T01:25:08;24.15;;;3.10;;
76546;SDS011;65390;53.014;8.886;2023-02-18T01:27:35;20.52;;;3.42;;
76546;SDS011;65390;53.014;8.886;2023-02-18T01:30:02;13.40;;;2.92;;
76546;SDS011;65390;53.014;8.886;2023-02-18T01:32:29;15.80;;;3.28;;
76546;SDS011;65390;53.014;8.886;2023-02-18T01:34:54;12.02;;;2.58;;
76546;SDS011;65390;53.014;8.886;2023-02-18T01:37:20;16.58;;;3.35;;
76546;SDS011;65390;53.014;8.886;2023-02-18T01:39:45;21.73;;;3.80;;
76546;SDS011;65390;53.014;8.886;2023-02-18T01:42:18;22.88;;;2.95;;
76546;SDS011;65390;53.014;8.886;2023-02-18T01:44:45;24.38;;;3.58;;
76546;SDS011;65390;53.014;8.886;2023-02-18T01:47:12;25.42;;;3.20;;
76546;SDS011;65390;53.014;8.886;2023-02-18T01:49:38;20.67;;;3.55;;
76546;SDS011;65390;53.014;8.886;2023-02-18T01:52:09;16.42;;;3.05;;
76546;SDS011;65390;53.014;8.886;2023-02-18T01:54:40;16.17;;;3.20;;
76546;SDS011;65390;53.014;8.886;2023-02-18T01:57:10;17.33;;;4.15;;
76546;SDS011;65390;53.014;8.886;2023-02-18T02:02:07;18.48;;;3.70;;
76546;SDS011;65390;53.014;8.886;2023-02-18T02:07:01;13.77;;;2.50;;
76546;SDS011;65390;53.014;8.886;2023-02-18T02:09:27;22.20;;;4.30;;
76546;SDS011;65390;53.014;8.886;2023-02-18T02:14:43;18.10;;;3.03;;
76546;SDS011;65390;53.014;8.886;2023-02-18T02:17:16;17.63;;;3.10;;
76546;SDS011;65390;53.014;8.886;2023-02-18T02:40:20;15.77;;;3.17;;
76546;SDS011;65390;53.014;8.886;2023-02-18T02:42:57;15.85;;;3.15;;
76546;SDS011;65390;53.014;8.886;2023-02-18T02:54:09;18.88;;;3.65;;
76546;SDS011;65390;53.014;8.886;2023-02-18T02:56:37;19.42;;;2.63;;
76546;SDS011;65390;53.014;8.886;2023-02-18T02:59:03;17.77;;;3.05;;
76546;SDS011;65390;53.014;8.886;2023-02-18T03:04:23;18.50;;;3.15;;
76546;SDS011;65390;53.014;8.886;2023-02-18T03:07:01;13.48;;;2.50;;
76546;SDS011;65390;53.014;8.886;2023-02-18T03:12:33;17.50;;;4.18;;
76546;SDS011;65390;53.014;8.886;2023-02-18T03:17:42;11.23;;;2.60;;
76546;SDS011;65390;53.014;8.886;2023-02-18T03:20:18;20.58;;;2.97;;
76546;SDS011;65390;53.014;8.886;2023-02-18T03:22:50;11.90;;;2.20;;
76546;SDS011;65390;53.014;8.886;2023-02-18T03:25:18;13.98;;;3.22;;
76546;SDS011;65390;53.014;8.886;2023-02-18T03:27:54;16.80;;;3.03;;
76546;SDS011;65390;53.014;8.886;2023-02-18T03:30:24;22.08;;;4.68;;
76546;SDS011;65390;53.014;8.886;2023-02-18T03:32:57;14.63;;;2.63;;
76546;SDS011;65390;53.014;8.886;2023-02-18T03:35:26;20.08;;;2.90;;
76546;SDS011;65390;53.014;8.886;2023-02-18T03:38:05;15.70;;;3.08;;
76546;SDS011;65390;53.014;8.886;2023-02-18T03:40:32;13.05;;;2.75;;
76546;SDS011;65390;53.014;8.886;2023-02-18T03:42:58;15.88;;;2.67;;
76546;SDS011;65390;53.014;8.886;2023-02-18T03:45:24;9.35;;;2.22;;
76546;SDS011;65390;53.014;8.886;2023-02-18T03:47:51;22.50;;;4.03;;
76546;SDS011;65390;53.014;8.886;2023-02-18T03:50:16;11.52;;;2.47;;
76546;SDS011;65390;53.014;8.886;2023-02-18T03:52:42;11.40;;;2.65;;
76546;SDS011;65390;53.014;8.886;2023-02-18T03:55:07;13.27;;;2.83;;
76546;SDS011;65390;53.014;8.886;2023-02-18T03:57:33;12.73;;;2.08;;
76546;SDS011;65390;53.014;8.886;2023-02-18T03:59:59;19.60;;;3.03;;
76546;SDS011;65390;53.014;8.886;2023-02-18T04:02:24;15.15;;;2.72;;
76546;SDS011;65390;53.014;8.886;2023-02-18T04:04:50;15.63;;;2.60;;
76546;SDS011;65390;53.014;8.886;2023-02-18T04:07:15;12.30;;;2.20;;
76546;SDS011;65390;53.014;8.886;2023-02-18T04:09:40;17.73;;;3.35;;
76546;SDS011;65390;53.014;8.886;2023-02-18T04:12:06;12.35;;;2.53;;
76546;SDS011;65390;53.014;8.886;2023-02-18T04:14:31;10.32;;;2.50;;
76546;SDS011;65390;53.014;8.886;2023-02-18T04:16:57;14.57;;;2.88;;
76546;SDS011;65390;53.014;8.886;2023-02-18T04:19:22;15.38;;;2.92;;
76546;SDS011;65390;53.014;8.886;2023-02-18T04:21:48;12.90;;;2.40;;
76546;SDS011;65390;53.014;8.886;2023-02-18T04:24:13;17.92;;;2.78;;
76546;SDS011;65390;53.014;8.886;2023-02-18T04:26:38;21.48;;;3.50;;
76546;SDS011;65390;53.014;8.886;2023-02-18T04:29:04;15.35;;;2.40;;
76546;SDS011;65390;53.014;8.886;2023-02-18T04:31:30;19.15;;;2.47;;
76546;SDS011;65390;53.014;8.886;2023-02-18T04:33:55;12.82;;;2.63;;
76546;SDS011;65390;53.014;8.886;2023-02-18T04:36:20;18.98;;;3.25;;
76546;SDS011;65390;53.014;8.886;2023-02-18T04:38:46;19.38;;;4.85;;
76546;SDS011;65390;53.014;8.886;2023-02-18T04:41:11;22.00;;;3.33;;
76546;SDS011;65390;53.014;8.886;2023-02-18T04:43:37;9.82;;;2.50;;
76546;SDS011;65390;53.014;8.886;2023-02-18T04:46:03;17.65;;;2.80;;
76546;SDS011;65390;53.014;8.886;2023-02-18T04:48:29;13.45;;;2.70;;
76546;SDS011;65390;53.014;8.886;2023-02-18T04:50:54;15.18;;;2.50;;
76546;SDS011;65390;53.014;8.886;2023-02-18T04:53:20;19.27;;;2.83;;
76546;SDS011;65390;53.014;8.886;2023-02-18T04:55:49;16.98;;;2.88;;
76546;SDS011;65390;53.014;8.886;2023-02-18T04:58:15;16.80;;;3.05;;
76546;SDS011;65390;53.014;8.886;2023-02-18T05:00:41;20.15;;;2.95;;
76546;SDS011;65390;53.014;8.886;2023-02-18T05:03:06;19.40;;;3.30;;
76546;SDS011;65390;53.014;8.886;2023-02-18T05:05:31;13.10;;;2.45;;
76546;SDS011;65390;53.014;8.886;2023-02-18T05:07:57;13.85;;;3.35;;
76546;SDS011;65390;53.014;8.886;2023-02-18T05:10:22;20.20;;;3.25;;
76546;SDS011;65390;53.014;8.886;2023-02-18T05:12:48;15.23;;;2.22;;
76546;SDS011;65390;53.014;8.886;2023-02-18T05:15:13;23.35;;;4.10;;
76546;SDS011;65390;53.014;8.886;2023-02-18T05:17:39;17.30;;;3.30;;
76546;SDS011;65390;53.014;8.886;2023-02-18T05:20:04;14.88;;;3.33;;
76546;SDS011;65390;53.014;8.886;2023-02-18T05:22:30;14.48;;;3.10;;
76546;SDS011;65390;53.014;8.886;2023-02-18T05:24:56;17.52;;;3.83;;
76546;SDS011;65390;53.014;8.886;2023-02-18T05:27:21;15.27;;;3.45;;
76546;SDS011;65390;53.014;8.886;2023-02-18T05:29:47;19.65;;;3.97;;
76546;SDS011;65390;53.014;8.886;2023-02-18T05:32:12;17.88;;;4.65;;
76546;SDS011;65390;53.014;8.886;2023-02-18T05:34:37;16.02;;;4.25;;
76546;SDS011;65390;53.014;8.886;2023-02-18T05:37:03;17.45;;;3.40;;
76546;SDS011;65390;53.014;8.886;2023-02-18T05:39:28;28.38;;;4.10;;
76546;SDS011;65390;53.014;8.886;2023-02-18T05:41:53;16.20;;;3.75;;
76546;SDS011;65390;53.014;8.886;2023-02-18T05:44:19;14.48;;;3.75;;
76546;SDS011;65390;53.014;8.886;2023-02-18T05:47:01;14.93;;;3.30;;
76546;SDS011;65390;53.014;8.886;2023-02-18T05:49:29;32.30;;;4.88;;
76546;SDS011;65390;53.014;8.886;2023-02-18T05:51:55;14.25;;;3.53;;
76546;SDS011;65390;53.014;8.886;2023-02-18T05:54:21;16.33;;;4.50;;
76546;SDS011;65390;53.014;8.886;2023-02-18T05:56:46;12.70;;;3.58;;
76546;SDS011;65390;53.014;8.886;2023-02-18T05:59:12;27.65;;;4.43;;
76546;SDS011;65390;53.014;8.886;2023-02-18T06:01:38;17.08;;;5.53;;
76546;SDS011;65390;53.014;8.886;2023-02-18T06:04:04;17.50;;;3.97;;
76546;SDS011;65390;53.014;8.886;2023-02-18T06:06:29;20.20;;;4.07;;
76546;SDS011;65390;53.014;8.886;2023-02-18T06:08:55;22.60;;;3.92;;
76546;SDS011;65390;53.014;8.886;2023-02-18T06:11:20;21.10;;;4.93;;
76546;SDS011;65390;53.014;8.886;2023-02-18T06:13:45;16.25;;;4.85;;
76546;SDS011;65390;53.014;8.886;2023-02-18T06:16:11;18.08;;;3.55;;
76546;SDS011;65390;53.014;8.886;2023-02-18T06:18:36;13.07;;;3.88;;
76546;SDS011;65390;53.014;8.886;2023-02-18T06:21:02;29.52;;;4.80;;
76546;SDS011;65390;53.014;8.886;2023-02-18T06:23:28;20.38;;;6.30;;
76546;SDS011;65390;53.014;8.886;2023-02-18T06:25:53;13.50;;;4.57;;
76546;SDS011;65390;53.014;8.886;2023-02-18T06:28:19;14.32;;;4.95;;
76546;SDS011;65390;53.014;8.886;2023-02-18T06:30:44;19.70;;;4.28;;
76546;SDS011;65390;53.014;8.886;2023-02-18T06:33:10;16.98;;;4.45;;
76546;SDS011;65390;53.014;8.886;2023-02-18T06:35:36;20.27;;;4.88;;
76546;SDS011;65390;53.014;8.886;2023-02-18T06:38:01;15.77;;;4.28;;
76546;SDS011;65390;53.014;8.886;2023-02-18T06:40:27;28.23;;;5.55;;
76546;SDS011;65390;53.014;8.886;2023-02-18T06:42:53;18.25;;;5.57;;
76546;SDS011;65390;53.014;8.886;2023-02-18T06:45:19;17.92;;;5.13;;
76546;SDS011;65390;53.014;8.886;2023-02-18T06:47:44;20.25;;;5.57;;
76546;SDS011;65390;53.014;8.886;2023-02-18T06:50:10;20.20;;;6.47;;
76546;SDS011;65390;53.014;8.886;2023-02-18T06:52:35;18.08;;;5.93;;
76546;SDS011;65390;53.014;8.886;2023-02-18T06:55:02;16.08;;;6.22;;
76546;SDS011;65390;53.014;8.886;2023-02-18T06:57:32;23.83;;;6.25;;
76546;SDS011;65390;53.014;8.886;2023-02-18T06:59:57;19.88;;;5.68;;
76546;SDS011;65390;53.014;8.886;2023-02-18T07:02:23;20.05;;;6.32;;
76546;SDS011;65390;53.014;8.886;2023-02-18T07:04:48;24.67;;;6.32;;
76546;SDS011;65390;53.014;8.886;2023-02-18T07:07:13;19.73;;;6.25;;
76546;SDS011;65390;53.014;8.886;2023-02-18T07:09:39;26.00;;;6.40;;
76546;SDS011;65390;53.014;8.886;2023-02-18T07:12:04;15.82;;;6.95;;
76546;SDS011;65390;53.014;8.886;2023-02-18T07:14:30;12.35;;;5.63;;
76546;SDS011;65390;53.014;8.886;2023-02-18T07:16:55;20.35;;;6.43;;
76546;SDS011;65390;53.014;8.886;2023-02-18T07:19:21;17.98;;;6.68;;
76546;SDS011;65390;53.014;8.886;2023-02-18T07:21:46;14.35;;;6.53;;
76546;SDS011;65390;53.014;8.886;2023-02-18T07:24:11;20.38;;;7.93;;
76546;SDS011;65390;53.014;8.886;2023-02-18T07:26:37;19.83;;;7.78;;
76546;SDS011;65390;53.014;8.886;2023-02-18T07:29:02;16.35;;;8.93;;
76546;SDS011;65390;53.014;8.886;2023-02-18T07:31:28;20.25;;;10.75;;
76546;SDS011;65390;53.014;8.886;2023-02-18T07:33:53;20.02;;;9.73;;
76546;SDS011;65390;53.014;8.886;2023-02-18T07:36:18;18.80;;;9.98;;
76546;SDS011;65390;53.014;8.886;2023-02-18T07:38:44;20.38;;;10.95;;
76546;SDS011;65390;53.014;8.886;2023-02-18T07:41:18;22.25;;;11.30;;
76546;SDS011;65390;53.014;8.886;2023-02-18T07:43:45;29.83;;;13.45;;
76546;SDS011;65390;53.014;8.886;2023-02-18T07:46:10;30.23;;;12.27;;
76546;SDS011;65390;53.014;8.886;2023-02-18T07:48:36;27.25;;;12.68;;
76546;SDS011;65390;53.014;8.886;2023-02-18T07:51:04;35.75;;;15.20;;
76546;SDS011;65390;53.014;8.886;2023-02-18T07:53:32;35.35;;;15.38;;
76546;SDS011;65390;53.014;8.886;2023-02-18T07:56:00;34.17;;;17.40;;
76546;SDS011;65390;53.014;8.886;2023-02-18T07:58:28;37.00;;;16.38;;
76546;SDS011;65390;53.014;8.886;2023-02-18T08:00:57;39.58;;;18.77;;
76546;SDS011;65390;53.014;8.886;2023-02-18T08:03:25;36.38;;;16.02;;
76546;SDS011;65390;53.014;8.886;2023-02-18T08:05:54;37.65;;;18.30;;
76546;SDS011;65390;53.014;8.886;2023-02-18T08:08:25;46.85;;;20.70;;
76546;SDS011;65390;53.014;8.886;2023-02-18T08:10:55;46.78;;;20.58;;
76546;SDS011;65390;53.014;8.886;2023-02-18T08:13:22;47.42;;;22.85;;
76546;SDS011;65390;53.014;8.886;2023-02-18T08:15:48;52.30;;;24.83;;
76546;SDS011;65390;53.014;8.886;2023-02-18T08:18:19;48.20;;;21.73;;
76546;SDS011;65390;53.014;8.886;2023-02-18T08:20:47;48.90;;;22.67;;
76546;SDS011;65390;53.014;8.886;2023-02-18T08:23:13;55.78;;;23.08;;
76546;SDS011;65390;53.014;8.886;2023-02-18T08:25:43;54.42;;;22.98;;
76546;SDS011;65390;53.014;8.886;2023-02-18T08:28:24;58.08;;;24.25;;
76546;SDS011;65390;53.014;8.886;2023-02-18T08:30:50;53.15;;;23.15;;
76546;SDS011;65390;53.014;8.886;2023-02-18T08:33:16;47.80;;;20.85;;
76546;SDS011;65390;53.014;8.886;2023-02-18T08:35:43;47.55;;;19.05;;
76546;SDS011;65390;53.014;8.886;2023-02-18T08:38:10;41.15;;;16.23;;
76546;SDS011;65390;53.014;8.886;2023-02-18T08:40:35;36.35;;;15.68;;
76546;SDS011;65390;53.014;8.886;2023-02-18T08:43:01;35.03;;;14.75;;
76546;SDS011;65390;53.014;8.886;2023-02-18T08:45:26;31.35;;;13.63;;
76546;SDS011;65390;53.014;8.886;2023-02-18T08:47:51;30.38;;;13.75;;
76546;SDS011;65390;53.014;8.886;2023-02-18T08:50:20;25.70;;;11.70;;
76546;SDS011;65390;53.014;8.886;2023-02-18T08:55:15;25.67;;;11.40;;
76546;SDS011;65390;53.014;8.886;2023-02-18T08:57:44;19.45;;;9.85;;
76546;SDS011;65390;53.014;8.886;2023-02-18T09:00:10;19.80;;;9.07;;
76546;SDS011;65390;53.014;8.886;2023-02-18T09:02:37;22.73;;;9.88;;
76546;SDS011;65390;53.014;8.886;2023-02-18T09:05:03;18.92;;;6.78;;
76546;SDS011;65390;53.014;8.886;2023-02-18T09:07:31;41.17;;;19.27;;
76546;SDS011;65390;53.014;8.886;2023-02-18T09:09:57;17.88;;;7.55;;
76546;SDS011;65390;53.014;8.886;2023-02-18T09:12:22;16.60;;;8.65;;
76546;SDS011;65390;53.014;8.886;2023-02-18T09:14:47;15.50;;;7.28;;
76546;SDS011;65390;53.014;8.886;2023-02-18T09:17:13;13.82;;;6.53;;
76546;SDS011;65390;53.014;8.886;2023-02-18T09:19:38;11.15;;;6.13;;
76546;SDS011;65390;53.014;8.886;2023-02-18T09:22:05;8.80;;;5.45;;
76546;SDS011;65390;53.014;8.886;2023-02-18T09:24:41;9.98;;;5.30;;
76546;SDS011;65390;53.014;8.886;2023-02-18T09:27:06;6.68;;;4.82;;
76546;SDS011;65390;53.014;8.886;2023-02-18T09:29:32;8.82;;;5.03;;
76546;SDS011;65390;53.014;8.886;2023-02-18T09:31:59;6.68;;;4.60;;
76546;SDS011;65390;53.014;8.886;2023-02-18T09:34:25;6.50;;;4.60;;
76546;SDS011;65390;53.014;8.886;2023-02-18T09:36:51;6.78;;;4.00;;
76546;SDS011;65390;53.014;8.886;2023-02-18T09:39:16;7.80;;;3.95;;
76546;SDS011;65390;53.014;8.886;2023-02-18T09:41:52;6.72;;;4.60;;
76546;SDS011;65390;53.014;8.886;2023-02-18T09:47:02;8.45;;;3.80;;
76546;SDS011;65390;53.014;8.886;2023-02-18T09:49:31;6.10;;;4.43;;
76546;SDS011;65390;53.014;8.886;2023-02-18T09:52:03;5.10;;;3.42;;
76546;SDS011;65390;53.014;8.886;2023-02-18T09:54:34;4.78;;;3.30;;
76546;SDS011;65390;53.014;8.886;2023-02-18T09:57:00;5.07;;;3.47;;
76546;SDS011;65390;53.014;8.886;2023-02-18T09:59:27;4.32;;;2.97;;
76546;SDS011;65390;53.014;8.886;2023-02-18T10:01:56;3.13;;;2.63;;
76546;SDS011;65390;53.014;8.886;2023-02-18T10:04:28;5.35;;;2.75;;
76546;SDS011;65390;53.014;8.886;2023-02-18T10:09:29;4.40;;;2.95;;
76546;SDS011;65390;53.014;8.886;2023-02-18T10:12:12;4.93;;;3.05;;
76546;SDS011;65390;53.014;8.886;2023-02-18T10:14:42;6.80;;;4.43;;
76546;SDS011;65390;53.014;8.886;2023-02-18T10:17:18;10.70;;;5.13;;
76546;SDS011;65390;53.014;8.886;2023-02-18T10:19:47;8.50;;;5.35;;
76546;SDS011;65390;53.014;8.886;2023-02-18T10:22:14;10.55;;;6.20;;
76546;SDS011;65390;53.014;8.886;2023-02-18T10:24:48;10.18;;;7.07;;
76546;SDS011;65390;53.014;8.886;2023-02-18T10:27:34;11.60;;;7.63;;
76546;SDS011;65390;53.014;8.886;2023-02-18T10:33:15;10.98;;;7.15;;
76546;SDS011;65390;53.014;8.886;2023-02-18T10:38:50;11.25;;;6.60;;
76546;SDS011;65390;53.014;8.886;2023-02-18T10:44:04;13.30;;;6.55;;
76546;SDS011;65390;53.014;8.886;2023-02-18T10:49:27;11.27;;;6.45;;
76546;SDS011;65390;53.014;8.886;2023-02-18T10:52:08;11.85;;;6.65;;
76546;SDS011;65390;53.014;8.886;2023-02-18T10:54:47;10.20;;;6.07;;
76546;SDS011;65390;53.014;8.886;2023-02-18T10:57:22;9.73;;;6.35;;
76546;SDS011;65390;53.014;8.886;2023-02-18T11:02:36;8.75;;;6.25;;
76546;SDS011;65390;53.014;8.886;2023-02-18T11:05:15;8.23;;;5.22;;
76546;SDS011;65390;53.014;8.886;2023-02-18T11:07:47;8.00;;;5.60;;
76546;SDS011;65390;53.014;8.886;2023-02-18T11:10:15;10.03;;;4.77;;
76546;SDS011;65390;53.014;8.886;2023-02-18T11:12:45;7.03;;;4.63;;
76546;SDS011;65390;53.014;8.886;2023-02-18T11:17:38;10.43;;;4.85;;
76546;SDS011;65390;53.014;8.886;2023-02-18T11:25:35;6.75;;;4.05;;
76546;SDS011;65390;53.014;8.886;2023-02-18T11:28:04;6.05;;;4.63;;
76546;SDS011;65390;53.014;8.886;2023-02-18T11:30:49;4.55;;;3.65;;
76546;SDS011;65390;53.014;8.886;2023-02-18T11:33:23;4.97;;;4.03;;
76546;SDS011;65390;53.014;8.886;2023-02-18T11:36:09;6.13;;;3.80;;
76546;SDS011;65390;53.014;8.886;2023-02-18T11:38:48;4.85;;;4.35;;
76546;SDS011;65390;53.014;8.886;2023-02-18T11:41:17;7.28;;;4.82;;
76546;SDS011;65390;53.014;8.886;2023-02-18T11:43:47;5.70;;;5.10;;
76546;SDS011;65390;53.014;8.886;2023-02-18T11:46:18;7.28;;;4.85;;
76546;SDS011;65390;53.014;8.886;2023-02-18T11:48:46;6.93;;;5.22;;
76546;SDS011;65390;53.014;8.886;2023-02-18T11:51:16;6.60;;;4.90;;
76546;SDS011;65390;53.014;8.886;2023-02-18T11:54:01;5.60;;;5.07;;
76546;SDS011;65390;53.014;8.886;2023-02-18T11:56:53;6.90;;;5.20;;
76546;SDS011;65390;53.014;8.886;2023-02-18T11:59:20;8.10;;;5.47;;
76546;SDS011;65390;53.014;8.886;2023-02-18T12:01:49;11.57;;;7.53;;
76546;SDS011;65390;53.014;8.886;2023-02-18T12:04:29;33.28;;;18.92;;
76546;SDS011;65390;53.014;8.886;2023-02-18T12:10:22;65.97;;;34.95;;
76546;SDS011;65390;53.014;8.886;2023-02-18T12:12:57;10.45;;;7.30;;
76546;SDS011;65390;53.014;8.886;2023-02-18T12:15:33;18.20;;;9.88;;
76546;SDS011;65390;53.014;8.886;2023-02-18T12:18:20;7.82;;;4.72;;
76546;SDS011;65390;53.014;8.886;2023-02-18T12:23:33;12.98;;;5.10;;
76546;SDS011;65390;53.014;8.886;2023-02-18T12:26:08;8.25;;;4.18;;
76546;SDS011;65390;53.014;8.886;2023-02-18T12:39:39;11.68;;;5.25;;
76546;SDS011;65390;53.014;8.886;2023-02-18T13:06:46;13.30;;;5.18;;
76546;SDS011;65390;53.014;8.886;2023-02-18T13:14:22;11.55;;;5.07;;
76546;SDS011;65390;53.014;8.886;2023-02-18T13:16:53;11.55;;;4.95;;
76546;SDS011;65390;53.014;8.886;2023-02-18T13:19:32;18.67;;;5.32;;
76546;SDS011;65390;53.014;8.886;2023-02-18T13:22:11;18.00;;;4.93;;
76546;SDS011;65390;53.014;8.886;2023-02-18T13:24:39;14.88;;;4.65;;
76546;SDS011;65390;53.014;8.886;2023-02-18T13:32:39;10.18;;;4.90;;
76546;SDS011;65390;53.014;8.886;2023-02-18T13:40:33;12.15;;;5.03;;
76546;SDS011;65390;53.014;8.886;2023-02-18T13:46:10;16.30;;;5.13;;
76546;SDS011;65390;53.014;8.886;2023-02-18T13:48:51;16.52;;;5.40;;
76546;SDS011;65390;53.014;8.886;2023-02-18T13:51:27;13.93;;;4.95;;
76546;SDS011;65390;53.014;8.886;2023-02-18T13:53:55;18.50;;;4.60;;
76546;SDS011;65390;53.014;8.886;2023-02-18T13:56:32;23.15;;;6.38;;
76546;SDS011;65390;53.014;8.886;2023-02-18T13:59:00;12.95;;;6.00;;
76546;SDS011;65390;53.014;8.886;2023-02-18T14:03:59;17.98;;;5.97;;
76546;SDS011;65390;53.014;8.886;2023-02-18T14:11:53;80.32;;;28.90;;
76546;SDS011;65390;53.014;8.886;2023-02-18T14:19:54;26.38;;;10.55;;
76546;SDS011;65390;53.014;8.886;2023-02-18T14:22:50;31.30;;;10.15;;
76546;SDS011;65390;53.014;8.886;2023-02-18T14:27:45;74.20;;;27.35;;
76546;SDS011;65390;53.014;8.886;2023-02-18T14:30:18;57.08;;;17.08;;
76546;SDS011;65390;53.014;8.886;2023-02-18T14:32:55;24.25;;;6.90;;
76546;SDS011;65390;53.014;8.886;2023-02-18T14:40:36;42.28;;;13.30;;
76546;SDS011;65390;53.014;8.886;2023-02-18T14:43:32;36.85;;;12.43;;
76546;SDS011;65390;53.014;8.886;2023-02-18T14:54:54;25.27;;;3.47;;
76546;SDS011;65390;53.014;8.886;2023-02-18T14:57:25;13.93;;;3.15;;
76546;SDS011;65390;53.014;8.886;2023-02-18T14:59:57;22.45;;;4.65;;
76546;SDS011;65390;53.014;8.886;2023-02-18T15:02:27;18.60;;;4.35;;
76546;SDS011;65390;53.014;8.886;2023-02-18T15:05:07;15.65;;;3.20;;
76546;SDS011;65390;53.014;8.886;2023-02-18T15:07:37;31.33;;;7.97;;
76546;SDS011;65390;53.014;8.886;2023-02-18T15:10:03;20.90;;;4.63;;
76546;SDS011;65390;53.014;8.886;2023-02-18T15:12:29;10.65;;;3.72;;
76546;SDS011;65390;53.014;8.886;2023-02-18T15:14:55;16.75;;;3.35;;
76546;SDS011;65390;53.014;8.886;2023-02-18T15:17:26;20.02;;;3.17;;
76546;SDS011;65390;53.014;8.886;2023-02-18T15:19:56;10.65;;;2.85;;
76546;SDS011;65390;53.014;8.886;2023-02-18T15:22:26;18.20;;;2.63;;
76546;SDS011;65390;53.014;8.886;2023-02-18T15:24:57;21.33;;;3.50;;
76546;SDS011;65390;53.014;8.886;2023-02-18T15:27:27;21.70;;;3.22;;
76546;SDS011;65390;53.014;8.886;2023-02-18T15:32:51;10.68;;;2.83;;
76546;SDS011;65390;53.014;8.886;2023-02-18T15:35:20;13.23;;;3.22;;
76546;SDS011;65390;53.014;8.886;2023-02-18T15:37:55;22.80;;;4.90;;
76546;SDS011;65390;53.014;8.886;2023-02-18T15:40:25;9.98;;;2.72;;
76546;SDS011;65390;53.014;8.886;2023-02-18T15:42:56;14.60;;;3.10;;
76546;SDS011;65390;53.014;8.886;2023-02-18T15:47:54;15.77;;;2.80;;
76546;SDS011;65390;53.014;8.886;2023-02-18T15:50:24;27.58;;;3.00;;
76546;SDS011;65390;53.014;8.886;2023-02-18T15:52:53;19.70;;;3.70;;
76546;SDS011;65390;53.014;8.886;2023-02-18T15:55:35;12.55;;;2.85;;
76546;SDS011;65390;53.014;8.886;2023-02-18T15:58:04;15.65;;;4.80;;
76546;SDS011;65390;53.014;8.886;2023-02-18T16:00:39;19.73;;;4.60;;
76546;SDS011;65390;53.014;8.886;2023-02-18T16:03:12;8.15;;;2.60;;
76546;SDS011;65390;53.014;8.886;2023-02-18T16:08:14;11.60;;;2.63;;
76546;SDS011;65390;53.014;8.886;2023-02-18T16:10:56;15.05;;;2.83;;
76546;SDS011;65390;53.014;8.886;2023-02-18T16:13:26;21.35;;;3.25;;
76546;SDS011;65390;53.014;8.886;2023-02-18T16:15:54;12.40;;;3.90;;
76546;SDS011;65390;53.014;8.886;2023-02-18T16:18:37;15.15;;;2.75;;
76546;SDS011;65390;53.014;8.886;2023-02-18T16:21:21;11.77;;;1.88;;
76546;SDS011;65390;53.014;8.886;2023-02-18T16:23:53;18.08;;;4.20;;
76546;SDS011;65390;53.014;8.886;2023-02-18T16:28:51;21.05;;;6.95;;
76546;SDS011;65390;53.014;8.886;2023-02-18T16:31:19;18.90;;;6.45;;
76546;SDS011;65390;53.014;8.886;2023-02-18T16:33:47;19.42;;;4.90;;
76546;SDS011;65390;53.014;8.886;2023-02-18T16:36:14;29.80;;;11.45;;
76546;SDS011;65390;53.014;8.886;2023-02-18T16:38:42;50.40;;;19.67;;
76546;SDS011;65390;53.014;8.886;2023-02-18T16:41:09;14.50;;;5.03;;
76546;SDS011;65390;53.014;8.886;2023-02-18T16:43:36;15.02;;;4.97;;
76546;SDS011;65390;53.014;8.886;2023-02-18T16:46:36;15.48;;;5.05;;
76546;SDS011;65390;53.014;8.886;2023-02-18T16:48:56;13.25;;;4.30;;
76546;SDS011;65390;53.014;8.886;2023-02-18T16:51:29;25.45;;;8.52;;
76546;SDS011;65390;53.014;8.886;2023-02-18T16:53:56;14.43;;;4.53;;
76546;SDS011;65390;53.014;8.886;2023-02-18T16:56:26;45.67;;;18.83;;
76546;SDS011;65390;53.014;8.886;2023-02-18T16:58:56;9.10;;;3.65;;
76546;SDS011;65390;53.014;8.886;2023-02-18T17:01:28;20.77;;;7.40;;
76546;SDS011;65390;53.014;8.886;2023-02-18T17:03:57;12.20;;;5.95;;
76546;SDS011;65390;53.014;8.886;2023-02-18T17:06:24;17.52;;;7.22;;
76546;SDS011;65390;53.014;8.886;2023-02-18T17:08:49;15.68;;;5.60;;
76546;SDS011;65390;53.014;8.886;2023-02-18T17:11:17;13.32;;;3.08;;
76546;SDS011;65390;53.014;8.886;2023-02-18T17:13:51;14.35;;;4.53;;
76546;SDS011;65390;53.014;8.886;2023-02-18T17:16:17;17.13;;;6.40;;
76546;SDS011;65390;53.014;8.886;2023-02-18T17:18:44;36.28;;;13.15;;
76546;SDS011;65390;53.014;8.886;2023-02-18T17:21:17;20.88;;;6.93;;
76546;SDS011;65390;53.014;8.886;2023-02-18T17:23:48;19.17;;;7.20;;
76546;SDS011;65390;53.014;8.886;2023-02-18T17:28:50;16.00;;;5.20;;
76546;SDS011;65390;53.014;8.886;2023-02-18T17:31:19;29.88;;;9.40;;
76546;SDS011;65390;53.014;8.886;2023-02-18T17:33:48;28.05;;;10.20;;
76546;SDS011;65390;53.014;8.886;2023-02-18T17:36:14;16.83;;;5.28;;
76546;SDS011;65390;53.014;8.886;2023-02-18T17:38:39;26.90;;;10.90;;
76546;SDS011;65390;53.014;8.886;2023-02-18T17:41:05;13.40;;;4.82;;
76546;SDS011;65390;53.014;8.886;2023-02-18T17:43:32;24.80;;;9.07;;
76546;SDS011;65390;53.014;8.886;2023-02-18T17:45:59;16.23;;;3.80;;